sensor_id;sensor_type;location;lat;lon;timestamp;P1;durP1;ratioP1;P2;durP2;ratioP2
5153;SDS011;2595;53.584;10.084;2022-07-29T00:02:02;1.70;;;1.60;;
5153;SDS011;2595;53.584;10.084;2022-07-29T00:04:28;3.00;;;1.77;;
5153;SDS011;2595;53.584;10.084;2022-07-29T00:06:53;1.93;;;1.40;;
5153;SDS011;2595;53.584;10.084;2022-07-29T00:09:19;2.13;;;1.70;;
5153;SDS011;2595;53.584;10.084;2022-07-29T00:11:45;1.60;;;1.50;;
5153;SDS011;2595;53.584;10.084;2022-07-29T00:14:10;2.70;;;1.63;;
5153;SDS011;2595;53.584;10.084;2022-07-29T00:16:36;1.40;;;1.30;;
5153;SDS011;2595;53.584;10.084;2022-07-29T00:19:02;1.97;;;1.70;;
5153;SDS011;2595;53.584;10.084;2022-07-29T00:21:28;4.40;;;2.00;;
5153;SDS011;2595;53.584;10.084;2022-07-29T00:23:54;1.80;;;1.60;;
5153;SDS011;2595;53.584;10.084;2022-07-29T00:26:19;1.63;;;1.53;;
5153;SDS011;2595;53.584;10.084;2022-07-29T00:28:45;2.50;;;1.60;;
5153;SDS011;2595;53.584;10.084;2022-07-29T00:31:11;2.23;;;1.90;;
5153;SDS011;2595;53.584;10.084;2022-07-29T00:33:37;4.10;;;2.00;;
5153;SDS011;2595;53.584;10.084;2022-07-29T00:36:02;3.73;;;2.00;;
5153;SDS011;2595;53.584;10.084;2022-07-29T00:38:28;2.80;;;1.87;;
5153;SDS011;2595;53.584;10.084;2022-07-29T00:40:54;1.90;;;1.80;;
5153;SDS011;2595;53.584;10.084;2022-07-29T00:43:19;4.13;;;1.77;;
5153;SDS011;2595;53.584;10.084;2022-07-29T00:45:45;1.97;;;1.87;;
5153;SDS011;2595;53.584;10.084;2022-07-29T00:48:11;2.33;;;2.10;;
5153;SDS011;2595;53.584;10.084;2022-07-29T00:50:36;2.70;;;1.80;;
5153;SDS011;2595;53.584;10.084;2022-07-29T00:53:03;4.47;;;2.17;;
5153;SDS011;2595;53.584;10.084;2022-07-29T00:55:30;4.33;;;2.10;;
5153;SDS011;2595;53.584;10.084;2022-07-29T00:57:56;2.23;;;2.03;;
5153;SDS011;2595;53.584;10.084;2022-07-29T01:00:24;2.10;;;1.90;;
5153;SDS011;2595;53.584;10.084;2022-07-29T01:02:51;2.60;;;1.60;;
5153;SDS011;2595;53.584;10.084;2022-07-29T01:05:18;1.97;;;1.87;;
5153;SDS011;2595;53.584;10.084;2022-07-29T01:07:48;3.43;;;2.43;;
5153;SDS011;2595;53.584;10.084;2022-07-29T01:10:17;2.87;;;2.00;;
5153;SDS011;2595;53.584;10.084;2022-07-29T01:12:44;1.63;;;1.53;;
5153;SDS011;2595;53.584;10.084;2022-07-29T01:15:15;2.57;;;1.90;;
5153;SDS011;2595;53.584;10.084;2022-07-29T01:23:28;11.30;;;2.17;;
5153;SDS011;2595;53.584;10.084;2022-07-29T01:29:05;2.20;;;1.67;;
5153;SDS011;2595;53.584;10.084;2022-07-29T01:34:17;1.80;;;1.70;;
5153;SDS011;2595;53.584;10.084;2022-07-29T01:36:55;1.93;;;1.83;;
5153;SDS011;2595;53.584;10.084;2022-07-29T01:39:51;2.30;;;1.70;;
5153;SDS011;2595;53.584;10.084;2022-07-29T01:44:56;3.77;;;2.30;;
5153;SDS011;2595;53.584;10.084;2022-07-29T01:47:44;2.40;;;2.20;;
5153;SDS011;2595;53.584;10.084;2022-07-29T01:50:22;2.53;;;1.90;;
5153;SDS011;2595;53.584;10.084;2022-07-29T01:53:02;2.73;;;2.53;;
5153;SDS011;2595;53.584;10.084;2022-07-29T01:55:32;2.00;;;1.90;;
5153;SDS011;2595;53.584;10.084;2022-07-29T01:58:03;2.60;;;2.40;;
5153;SDS011;2595;53.584;10.084;2022-07-29T02:00:31;3.00;;;2.27;;
5153;SDS011;2595;53.584;10.084;2022-07-29T02:02:59;5.37;;;2.60;;
5153;SDS011;2595;53.584;10.084;2022-07-29T02:05:28;3.37;;;2.00;;
5153;SDS011;2595;53.584;10.084;2022-07-29T02:07:56;2.67;;;2.47;;
5153;SDS011;2595;53.584;10.084;2022-07-29T02:10:25;7.00;;;2.50;;
5153;SDS011;2595;53.584;10.084;2022-07-29T02:12:52;3.10;;;1.60;;
5153;SDS011;2595;53.584;10.084;2022-07-29T02:15:21;2.43;;;2.27;;
5153;SDS011;2595;53.584;10.084;2022-07-29T02:17:50;2.50;;;2.30;;
5153;SDS011;2595;53.584;10.084;2022-07-29T02:20:19;5.13;;;2.47;;
5153;SDS011;2595;53.584;10.084;2022-07-29T02:22:45;3.07;;;2.57;;
5153;SDS011;2595;53.584;10.084;2022-07-29T02:25:13;2.53;;;2.33;;
5153;SDS011;2595;53.584;10.084;2022-07-29T02:27:40;2.40;;;2.20;;
5153;SDS011;2595;53.584;10.084;2022-07-29T02:30:07;2.97;;;2.73;;
5153;SDS011;2595;53.584;10.084;2022-07-29T02:32:35;3.33;;;2.17;;
5153;SDS011;2595;53.584;10.084;2022-07-29T02:35:03;2.27;;;2.17;;
5153;SDS011;2595;53.584;10.084;2022-07-29T02:37:30;2.80;;;2.17;;
5153;SDS011;2595;53.584;10.084;2022-07-29T02:39:57;2.20;;;2.10;;
5153;SDS011;2595;53.584;10.084;2022-07-29T02:42:24;2.50;;;1.90;;
5153;SDS011;2595;53.584;10.084;2022-07-29T02:44:53;2.70;;;2.50;;
5153;SDS011;2595;53.584;10.084;2022-07-29T02:47:23;6.10;;;2.13;;
5153;SDS011;2595;53.584;10.084;2022-07-29T02:52:50;2.73;;;2.20;;
5153;SDS011;2595;53.584;10.084;2022-07-29T02:55:26;3.70;;;2.60;;
5153;SDS011;2595;53.584;10.084;2022-07-29T02:58:09;2.60;;;2.43;;
5153;SDS011;2595;53.584;10.084;2022-07-29T03:00:39;8.00;;;2.30;;
5153;SDS011;2595;53.584;10.084;2022-07-29T03:03:07;2.87;;;2.30;;
5153;SDS011;2595;53.584;10.084;2022-07-29T03:05:37;5.50;;;2.33;;
5153;SDS011;2595;53.584;10.084;2022-07-29T03:08:04;7.90;;;2.60;;
5153;SDS011;2595;53.584;10.084;2022-07-29T03:10:31;2.50;;;2.30;;
5153;SDS011;2595;53.584;10.084;2022-07-29T03:12:58;2.77;;;2.50;;
5153;SDS011;2595;53.584;10.084;2022-07-29T03:15:24;2.73;;;2.53;;
5153;SDS011;2595;53.584;10.084;2022-07-29T03:17:51;2.97;;;2.67;;
5153;SDS011;2595;53.584;10.084;2022-07-29T03:20:17;9.13;;;2.40;;
5153;SDS011;2595;53.584;10.084;2022-07-29T03:22:44;3.33;;;3.13;;
5153;SDS011;2595;53.584;10.084;2022-07-29T03:25:15;2.30;;;2.10;;
5153;SDS011;2595;53.584;10.084;2022-07-29T03:27:43;3.37;;;3.17;;
5153;SDS011;2595;53.584;10.084;2022-07-29T03:30:11;2.83;;;2.63;;
5153;SDS011;2595;53.584;10.084;2022-07-29T03:32:38;3.57;;;2.20;;
5153;SDS011;2595;53.584;10.084;2022-07-29T03:35:05;3.30;;;2.50;;
5153;SDS011;2595;53.584;10.084;2022-07-29T03:37:31;2.90;;;2.70;;
5153;SDS011;2595;53.584;10.084;2022-07-29T03:39:58;2.40;;;2.20;;
5153;SDS011;2595;53.584;10.084;2022-07-29T03:42:26;3.03;;;2.83;;
5153;SDS011;2595;53.584;10.084;2022-07-29T03:44:56;2.43;;;2.23;;
5153;SDS011;2595;53.584;10.084;2022-07-29T03:47:25;2.50;;;2.30;;
5153;SDS011;2595;53.584;10.084;2022-07-29T03:49:54;4.03;;;2.43;;
5153;SDS011;2595;53.584;10.084;2022-07-29T03:52:25;2.87;;;2.50;;
5153;SDS011;2595;53.584;10.084;2022-07-29T03:54:51;2.60;;;2.40;;
5153;SDS011;2595;53.584;10.084;2022-07-29T03:57:18;5.07;;;2.77;;
5153;SDS011;2595;53.584;10.084;2022-07-29T03:59:45;4.07;;;2.67;;
5153;SDS011;2595;53.584;10.084;2022-07-29T04:02:11;4.40;;;3.00;;
5153;SDS011;2595;53.584;10.084;2022-07-29T04:04:37;4.30;;;2.97;;
5153;SDS011;2595;53.584;10.084;2022-07-29T04:07:04;3.57;;;2.70;;
5153;SDS011;2595;53.584;10.084;2022-07-29T04:09:30;2.60;;;2.40;;
5153;SDS011;2595;53.584;10.084;2022-07-29T04:11:55;2.27;;;1.87;;
5153;SDS011;2595;53.584;10.084;2022-07-29T04:14:21;2.80;;;2.60;;
5153;SDS011;2595;53.584;10.084;2022-07-29T04:16:47;4.03;;;2.80;;
5153;SDS011;2595;53.584;10.084;2022-07-29T04:19:12;6.00;;;2.70;;
5153;SDS011;2595;53.584;10.084;2022-07-29T04:21:38;3.40;;;2.63;;
5153;SDS011;2595;53.584;10.084;2022-07-29T04:24:04;3.57;;;2.40;;
5153;SDS011;2595;53.584;10.084;2022-07-29T04:26:31;6.03;;;2.80;;
5153;SDS011;2595;53.584;10.084;2022-07-29T04:28:56;4.90;;;2.80;;
5153;SDS011;2595;53.584;10.084;2022-07-29T04:31:22;9.03;;;2.60;;
5153;SDS011;2595;53.584;10.084;2022-07-29T04:33:47;4.43;;;3.20;;
5153;SDS011;2595;53.584;10.084;2022-07-29T04:36:13;6.67;;;2.77;;
5153;SDS011;2595;53.584;10.084;2022-07-29T04:38:39;3.50;;;2.77;;
5153;SDS011;2595;53.584;10.084;2022-07-29T04:41:04;2.80;;;2.40;;
5153;SDS011;2595;53.584;10.084;2022-07-29T04:43:32;5.10;;;3.50;;
5153;SDS011;2595;53.584;10.084;2022-07-29T04:45:58;6.07;;;3.07;;
5153;SDS011;2595;53.584;10.084;2022-07-29T04:48:23;4.13;;;2.70;;
5153;SDS011;2595;53.584;10.084;2022-07-29T04:50:49;5.13;;;2.90;;
5153;SDS011;2595;53.584;10.084;2022-07-29T04:53:15;3.27;;;2.87;;
5153;SDS011;2595;53.584;10.084;2022-07-29T04:55:40;3.83;;;2.90;;
5153;SDS011;2595;53.584;10.084;2022-07-29T04:58:06;5.80;;;2.60;;
5153;SDS011;2595;53.584;10.084;2022-07-29T05:00:32;2.77;;;2.57;;
5153;SDS011;2595;53.584;10.084;2022-07-29T05:02:58;4.43;;;3.03;;
5153;SDS011;2595;53.584;10.084;2022-07-29T05:05:24;2.97;;;2.77;;
5153;SDS011;2595;53.584;10.084;2022-07-29T05:07:49;5.03;;;2.93;;
5153;SDS011;2595;53.584;10.084;2022-07-29T05:10:15;3.33;;;3.03;;
5153;SDS011;2595;53.584;10.084;2022-07-29T05:12:40;3.13;;;2.93;;
5153;SDS011;2595;53.584;10.084;2022-07-29T05:15:06;3.30;;;3.03;;
5153;SDS011;2595;53.584;10.084;2022-07-29T05:17:32;4.93;;;2.67;;
5153;SDS011;2595;53.584;10.084;2022-07-29T05:19:58;6.50;;;2.77;;
5153;SDS011;2595;53.584;10.084;2022-07-29T05:22:24;4.10;;;2.80;;
5153;SDS011;2595;53.584;10.084;2022-07-29T05:24:49;2.43;;;2.23;;
5153;SDS011;2595;53.584;10.084;2022-07-29T05:27:15;2.13;;;2.00;;
5153;SDS011;2595;53.584;10.084;2022-07-29T05:29:41;2.50;;;2.30;;
5153;SDS011;2595;53.584;10.084;2022-07-29T05:32:06;3.23;;;2.53;;
5153;SDS011;2595;53.584;10.084;2022-07-29T05:34:32;3.10;;;2.80;;
5153;SDS011;2595;53.584;10.084;2022-07-29T05:36:58;5.40;;;2.80;;
5153;SDS011;2595;53.584;10.084;2022-07-29T05:39:23;2.50;;;2.30;;
5153;SDS011;2595;53.584;10.084;2022-07-29T05:41:49;5.73;;;2.77;;
5153;SDS011;2595;53.584;10.084;2022-07-29T05:44:15;3.43;;;2.67;;
5153;SDS011;2595;53.584;10.084;2022-07-29T05:46:40;7.93;;;2.63;;
5153;SDS011;2595;53.584;10.084;2022-07-29T05:49:06;2.93;;;2.40;;
5153;SDS011;2595;53.584;10.084;2022-07-29T05:51:33;5.67;;;3.03;;
5153;SDS011;2595;53.584;10.084;2022-07-29T05:53:59;4.33;;;2.50;;
5153;SDS011;2595;53.584;10.084;2022-07-29T05:56:25;4.63;;;2.50;;
5153;SDS011;2595;53.584;10.084;2022-07-29T05:58:51;2.50;;;2.40;;
5153;SDS011;2595;53.584;10.084;2022-07-29T06:01:17;3.43;;;2.73;;
5153;SDS011;2595;53.584;10.084;2022-07-29T06:03:43;3.00;;;2.33;;
5153;SDS011;2595;53.584;10.084;2022-07-29T06:06:09;3.23;;;2.87;;
5153;SDS011;2595;53.584;10.084;2022-07-29T06:08:35;3.47;;;2.80;;
5153;SDS011;2595;53.584;10.084;2022-07-29T06:11:01;2.70;;;2.60;;
5153;SDS011;2595;53.584;10.084;2022-07-29T06:13:28;6.00;;;2.67;;
5153;SDS011;2595;53.584;10.084;2022-07-29T06:15:54;4.60;;;2.90;;
5153;SDS011;2595;53.584;10.084;2022-07-29T06:18:19;2.90;;;2.70;;
5153;SDS011;2595;53.584;10.084;2022-07-29T06:20:48;4.30;;;1.90;;
5153;SDS011;2595;53.584;10.084;2022-07-29T06:23:17;2.70;;;2.50;;
5153;SDS011;2595;53.584;10.084;2022-07-29T06:25:43;3.03;;;2.80;;
5153;SDS011;2595;53.584;10.084;2022-07-29T06:28:09;2.50;;;2.30;;
5153;SDS011;2595;53.584;10.084;2022-07-29T06:30:36;2.30;;;2.10;;
5153;SDS011;2595;53.584;10.084;2022-07-29T06:33:02;3.03;;;2.30;;
5153;SDS011;2595;53.584;10.084;2022-07-29T06:35:28;2.70;;;2.50;;
5153;SDS011;2595;53.584;10.084;2022-07-29T06:37:53;4.07;;;2.50;;
5153;SDS011;2595;53.584;10.084;2022-07-29T06:40:19;5.10;;;2.93;;
5153;SDS011;2595;53.584;10.084;2022-07-29T06:43:03;3.13;;;2.83;;
5153;SDS011;2595;53.584;10.084;2022-07-29T06:45:29;3.23;;;2.50;;
5153;SDS011;2595;53.584;10.084;2022-07-29T06:47:55;2.57;;;2.23;;
5153;SDS011;2595;53.584;10.084;2022-07-29T06:50:20;3.40;;;2.27;;
5153;SDS011;2595;53.584;10.084;2022-07-29T06:52:46;5.33;;;2.73;;
5153;SDS011;2595;53.584;10.084;2022-07-29T06:55:12;2.10;;;2.00;;
5153;SDS011;2595;53.584;10.084;2022-07-29T06:57:39;3.40;;;2.07;;
5153;SDS011;2595;53.584;10.084;2022-07-29T07:00:04;2.83;;;2.63;;
5153;SDS011;2595;53.584;10.084;2022-07-29T07:02:30;2.93;;;2.43;;
5153;SDS011;2595;53.584;10.084;2022-07-29T07:04:56;6.60;;;2.30;;
5153;SDS011;2595;53.584;10.084;2022-07-29T07:07:23;6.10;;;2.60;;
5153;SDS011;2595;53.584;10.084;2022-07-29T07:09:49;2.63;;;2.10;;
5153;SDS011;2595;53.584;10.084;2022-07-29T07:12:15;2.60;;;2.40;;
5153;SDS011;2595;53.584;10.084;2022-07-29T07:14:40;4.83;;;2.63;;
5153;SDS011;2595;53.584;10.084;2022-07-29T07:17:06;2.90;;;2.40;;
5153;SDS011;2595;53.584;10.084;2022-07-29T07:19:32;4.47;;;3.10;;
5153;SDS011;2595;53.584;10.084;2022-07-29T07:21:58;4.20;;;2.60;;
5153;SDS011;2595;53.584;10.084;2022-07-29T07:24:24;3.10;;;2.20;;
5153;SDS011;2595;53.584;10.084;2022-07-29T07:26:49;2.73;;;2.50;;
5153;SDS011;2595;53.584;10.084;2022-07-29T07:29:15;2.53;;;2.43;;
5153;SDS011;2595;53.584;10.084;2022-07-29T07:31:40;2.67;;;2.47;;
5153;SDS011;2595;53.584;10.084;2022-07-29T07:34:06;3.33;;;3.13;;
5153;SDS011;2595;53.584;10.084;2022-07-29T07:36:32;5.77;;;2.93;;
5153;SDS011;2595;53.584;10.084;2022-07-29T07:38:57;2.50;;;2.30;;
5153;SDS011;2595;53.584;10.084;2022-07-29T07:41:23;2.67;;;2.47;;
5153;SDS011;2595;53.584;10.084;2022-07-29T07:43:49;2.83;;;2.50;;
5153;SDS011;2595;53.584;10.084;2022-07-29T07:46:14;2.53;;;2.30;;
5153;SDS011;2595;53.584;10.084;2022-07-29T07:48:40;2.73;;;2.53;;
5153;SDS011;2595;53.584;10.084;2022-07-29T07:51:06;4.10;;;2.60;;
5153;SDS011;2595;53.584;10.084;2022-07-29T07:53:32;4.87;;;3.13;;
5153;SDS011;2595;53.584;10.084;2022-07-29T07:55:58;2.77;;;2.40;;
5153;SDS011;2595;53.584;10.084;2022-07-29T07:58:24;3.60;;;2.63;;
5153;SDS011;2595;53.584;10.084;2022-07-29T08:00:50;4.00;;;2.40;;
5153;SDS011;2595;53.584;10.084;2022-07-29T08:03:15;3.03;;;2.83;;
5153;SDS011;2595;53.584;10.084;2022-07-29T08:05:41;3.37;;;2.90;;
5153;SDS011;2595;53.584;10.084;2022-07-29T08:08:07;2.60;;;2.40;;
5153;SDS011;2595;53.584;10.084;2022-07-29T08:10:33;5.40;;;4.00;;
5153;SDS011;2595;53.584;10.084;2022-07-29T08:13:17;4.17;;;2.20;;
5153;SDS011;2595;53.584;10.084;2022-07-29T08:15:43;2.63;;;2.47;;
5153;SDS011;2595;53.584;10.084;2022-07-29T08:18:10;4.50;;;2.47;;
5153;SDS011;2595;53.584;10.084;2022-07-29T08:20:37;2.80;;;2.40;;
5153;SDS011;2595;53.584;10.084;2022-07-29T08:23:04;4.60;;;2.47;;
5153;SDS011;2595;53.584;10.084;2022-07-29T08:25:36;2.70;;;2.50;;
5153;SDS011;2595;53.584;10.084;2022-07-29T08:28:04;2.20;;;2.00;;
5153;SDS011;2595;53.584;10.084;2022-07-29T08:30:30;3.00;;;2.80;;
5153;SDS011;2595;53.584;10.084;2022-07-29T08:32:56;2.50;;;2.30;;
5153;SDS011;2595;53.584;10.084;2022-07-29T08:35:22;2.80;;;2.60;;
5153;SDS011;2595;53.584;10.084;2022-07-29T08:37:48;2.30;;;2.10;;
5153;SDS011;2595;53.584;10.084;2022-07-29T08:40:14;2.93;;;2.53;;
5153;SDS011;2595;53.584;10.084;2022-07-29T08:42:40;3.70;;;3.40;;
5153;SDS011;2595;53.584;10.084;2022-07-29T08:45:06;5.87;;;2.50;;
5153;SDS011;2595;53.584;10.084;2022-07-29T08:47:32;2.07;;;1.90;;
5153;SDS011;2595;53.584;10.084;2022-07-29T08:49:58;3.97;;;1.83;;
5153;SDS011;2595;53.584;10.084;2022-07-29T08:52:25;2.30;;;2.10;;
5153;SDS011;2595;53.584;10.084;2022-07-29T08:54:52;2.63;;;2.40;;
5153;SDS011;2595;53.584;10.084;2022-07-29T08:57:18;2.50;;;2.30;;
5153;SDS011;2595;53.584;10.084;2022-07-29T08:59:46;3.87;;;2.57;;
5153;SDS011;2595;53.584;10.084;2022-07-29T09:02:17;5.70;;;3.00;;
5153;SDS011;2595;53.584;10.084;2022-07-29T09:04:45;2.80;;;2.60;;
5153;SDS011;2595;53.584;10.084;2022-07-29T09:07:11;2.87;;;2.37;;
5153;SDS011;2595;53.584;10.084;2022-07-29T09:09:40;2.30;;;2.13;;
5153;SDS011;2595;53.584;10.084;2022-07-29T09:12:07;2.50;;;2.30;;
5153;SDS011;2595;53.584;10.084;2022-07-29T09:14:33;2.97;;;2.67;;
5153;SDS011;2595;53.584;10.084;2022-07-29T09:16:59;2.73;;;2.37;;
5153;SDS011;2595;53.584;10.084;2022-07-29T09:19:31;2.30;;;2.20;;
5153;SDS011;2595;53.584;10.084;2022-07-29T09:22:03;2.83;;;2.40;;
5153;SDS011;2595;53.584;10.084;2022-07-29T09:24:38;2.33;;;2.13;;
5153;SDS011;2595;53.584;10.084;2022-07-29T09:27:07;2.93;;;2.67;;
5153;SDS011;2595;53.584;10.084;2022-07-29T09:29:43;2.00;;;1.90;;
5153;SDS011;2595;53.584;10.084;2022-07-29T09:32:09;2.70;;;2.40;;
5153;SDS011;2595;53.584;10.084;2022-07-29T09:34:35;2.57;;;2.37;;
5153;SDS011;2595;53.584;10.084;2022-07-29T09:37:01;3.60;;;2.10;;
5153;SDS011;2595;53.584;10.084;2022-07-29T09:39:34;2.30;;;2.10;;
5153;SDS011;2595;53.584;10.084;2022-07-29T09:42:03;8.73;;;2.43;;
5153;SDS011;2595;53.584;10.084;2022-07-29T09:44:40;2.70;;;1.93;;
5153;SDS011;2595;53.584;10.084;2022-07-29T09:47:15;4.13;;;2.40;;
5153;SDS011;2595;53.584;10.084;2022-07-29T09:49:53;3.73;;;2.60;;
5153;SDS011;2595;53.584;10.084;2022-07-29T09:52:20;3.57;;;1.93;;
5153;SDS011;2595;53.584;10.084;2022-07-29T09:54:46;2.10;;;1.97;;
5153;SDS011;2595;53.584;10.084;2022-07-29T09:57:27;2.80;;;2.30;;
5153;SDS011;2595;53.584;10.084;2022-07-29T10:00:03;7.53;;;2.47;;
5153;SDS011;2595;53.584;10.084;2022-07-29T10:02:34;2.53;;;2.33;;
5153;SDS011;2595;53.584;10.084;2022-07-29T10:05:02;3.00;;;1.93;;
5153;SDS011;2595;53.584;10.084;2022-07-29T10:10:18;2.73;;;1.73;;
5153;SDS011;2595;53.584;10.084;2022-07-29T10:12:48;2.10;;;1.90;;
5153;SDS011;2595;53.584;10.084;2022-07-29T10:15:15;2.00;;;1.90;;
5153;SDS011;2595;53.584;10.084;2022-07-29T10:17:41;4.47;;;2.10;;
5153;SDS011;2595;53.584;10.084;2022-07-29T10:20:08;2.60;;;2.40;;
5153;SDS011;2595;53.584;10.084;2022-07-29T10:22:34;6.93;;;2.87;;
5153;SDS011;2595;53.584;10.084;2022-07-29T10:24:59;4.53;;;1.50;;
5153;SDS011;2595;53.584;10.084;2022-07-29T10:27:25;2.20;;;2.00;;
5153;SDS011;2595;53.584;10.084;2022-07-29T10:29:51;3.10;;;1.97;;
5153;SDS011;2595;53.584;10.084;2022-07-29T10:35:21;6.30;;;2.03;;
5153;SDS011;2595;53.584;10.084;2022-07-29T10:41:10;2.40;;;1.67;;
5153;SDS011;2595;53.584;10.084;2022-07-29T10:43:53;1.70;;;1.60;;
5153;SDS011;2595;53.584;10.084;2022-07-29T10:46:25;4.13;;;1.90;;
5153;SDS011;2595;53.584;10.084;2022-07-29T10:51:51;3.30;;;2.17;;
5153;SDS011;2595;53.584;10.084;2022-07-29T11:07:24;2.50;;;2.23;;
5153;SDS011;2595;53.584;10.084;2022-07-29T11:15:15;2.90;;;2.00;;
5153;SDS011;2595;53.584;10.084;2022-07-29T11:28:34;3.37;;;2.83;;
5153;SDS011;2595;53.584;10.084;2022-07-29T11:31:12;2.73;;;2.00;;
5153;SDS011;2595;53.584;10.084;2022-07-29T11:33:38;1.77;;;1.67;;
5153;SDS011;2595;53.584;10.084;2022-07-29T11:38:34;2.20;;;2.00;;
5153;SDS011;2595;53.584;10.084;2022-07-29T11:43:51;1.80;;;1.70;;
5153;SDS011;2595;53.584;10.084;2022-07-29T11:46:35;5.10;;;2.17;;
5153;SDS011;2595;53.584;10.084;2022-07-29T11:49:23;2.87;;;2.13;;
5153;SDS011;2595;53.584;10.084;2022-07-29T11:51:54;1.90;;;1.70;;
5153;SDS011;2595;53.584;10.084;2022-07-29T11:54:25;2.43;;;1.50;;
5153;SDS011;2595;53.584;10.084;2022-07-29T11:56:57;2.70;;;2.43;;
5153;SDS011;2595;53.584;10.084;2022-07-29T11:59:23;2.60;;;2.40;;
5153;SDS011;2595;53.584;10.084;2022-07-29T12:01:53;1.93;;;1.83;;
5153;SDS011;2595;53.584;10.084;2022-07-29T12:04:20;4.33;;;2.20;;
5153;SDS011;2595;53.584;10.084;2022-07-29T12:06:49;4.70;;;2.20;;
5153;SDS011;2595;53.584;10.084;2022-07-29T12:09:16;2.90;;;1.63;;
5153;SDS011;2595;53.584;10.084;2022-07-29T12:11:42;2.20;;;2.10;;
5153;SDS011;2595;53.584;10.084;2022-07-29T12:14:08;2.30;;;2.03;;
5153;SDS011;2595;53.584;10.084;2022-07-29T12:16:37;4.17;;;2.60;;
5153;SDS011;2595;53.584;10.084;2022-07-29T12:19:03;4.60;;;2.43;;
5153;SDS011;2595;53.584;10.084;2022-07-29T12:21:42;2.30;;;1.60;;
5153;SDS011;2595;53.584;10.084;2022-07-29T12:24:09;2.00;;;1.80;;
5153;SDS011;2595;53.584;10.084;2022-07-29T12:26:35;3.80;;;2.13;;
5153;SDS011;2595;53.584;10.084;2022-07-29T12:29:01;2.80;;;1.90;;
5153;SDS011;2595;53.584;10.084;2022-07-29T12:31:27;4.10;;;2.03;;
5153;SDS011;2595;53.584;10.084;2022-07-29T12:33:53;3.47;;;2.20;;
5153;SDS011;2595;53.584;10.084;2022-07-29T12:36:19;5.43;;;2.57;;
5153;SDS011;2595;53.584;10.084;2022-07-29T12:38:45;2.20;;;2.00;;
5153;SDS011;2595;53.584;10.084;2022-07-29T12:41:11;2.03;;;1.83;;
5153;SDS011;2595;53.584;10.084;2022-07-29T12:43:37;1.60;;;1.43;;
5153;SDS011;2595;53.584;10.084;2022-07-29T12:46:13;5.23;;;2.30;;
5153;SDS011;2595;53.584;10.084;2022-07-29T12:48:40;1.70;;;1.60;;
5153;SDS011;2595;53.584;10.084;2022-07-29T12:51:08;1.97;;;1.80;;
5153;SDS011;2595;53.584;10.084;2022-07-29T12:53:35;7.40;;;1.87;;
5153;SDS011;2595;53.584;10.084;2022-07-29T12:56:01;2.97;;;2.00;;
5153;SDS011;2595;53.584;10.084;2022-07-29T12:58:29;4.53;;;1.83;;
5153;SDS011;2595;53.584;10.084;2022-07-29T13:01:12;2.37;;;1.63;;
5153;SDS011;2595;53.584;10.084;2022-07-29T13:06:27;1.73;;;1.60;;
5153;SDS011;2595;53.584;10.084;2022-07-29T13:09:00;1.97;;;1.57;;
5153;SDS011;2595;53.584;10.084;2022-07-29T13:11:27;2.20;;;2.00;;
5153;SDS011;2595;53.584;10.084;2022-07-29T13:13:53;2.60;;;1.50;;
5153;SDS011;2595;53.584;10.084;2022-07-29T13:16:19;3.33;;;2.23;;
5153;SDS011;2595;53.584;10.084;2022-07-29T13:18:45;2.17;;;1.80;;
5153;SDS011;2595;53.584;10.084;2022-07-29T13:21:12;4.00;;;2.17;;
5153;SDS011;2595;53.584;10.084;2022-07-29T13:23:39;3.00;;;1.87;;
5153;SDS011;2595;53.584;10.084;2022-07-29T13:26:08;3.73;;;2.77;;
5153;SDS011;2595;53.584;10.084;2022-07-29T13:28:35;3.50;;;1.90;;
5153;SDS011;2595;53.584;10.084;2022-07-29T13:31:01;5.50;;;2.30;;
5153;SDS011;2595;53.584;10.084;2022-07-29T13:33:27;2.80;;;2.60;;
5153;SDS011;2595;53.584;10.084;2022-07-29T13:35:52;6.37;;;3.70;;
5153;SDS011;2595;53.584;10.084;2022-07-29T13:38:18;7.40;;;2.73;;
5153;SDS011;2595;53.584;10.084;2022-07-29T13:40:44;3.30;;;3.00;;
5153;SDS011;2595;53.584;10.084;2022-07-29T13:43:10;4.20;;;3.37;;
5153;SDS011;2595;53.584;10.084;2022-07-29T13:45:36;4.20;;;3.90;;
5153;SDS011;2595;53.584;10.084;2022-07-29T13:48:02;4.50;;;4.10;;
5153;SDS011;2595;53.584;10.084;2022-07-29T13:50:28;4.63;;;3.90;;
5153;SDS011;2595;53.584;10.084;2022-07-29T13:52:54;4.00;;;3.70;;
5153;SDS011;2595;53.584;10.084;2022-07-29T13:55:19;5.60;;;3.17;;
5153;SDS011;2595;53.584;10.084;2022-07-29T13:57:45;4.03;;;2.83;;
5153;SDS011;2595;53.584;10.084;2022-07-29T14:00:11;7.07;;;3.13;;
5153;SDS011;2595;53.584;10.084;2022-07-29T14:02:37;5.27;;;3.70;;
5153;SDS011;2595;53.584;10.084;2022-07-29T14:05:03;3.13;;;2.90;;
5153;SDS011;2595;53.584;10.084;2022-07-29T14:07:30;5.80;;;4.37;;
5153;SDS011;2595;53.584;10.084;2022-07-29T14:09:56;4.43;;;4.03;;
5153;SDS011;2595;53.584;10.084;2022-07-29T14:12:21;8.33;;;5.60;;
5153;SDS011;2595;53.584;10.084;2022-07-29T14:14:47;5.13;;;4.27;;
5153;SDS011;2595;53.584;10.084;2022-07-29T14:17:13;6.00;;;3.47;;
5153;SDS011;2595;53.584;10.084;2022-07-29T14:19:39;10.80;;;3.17;;
5153;SDS011;2595;53.584;10.084;2022-07-29T14:22:05;5.17;;;4.13;;
5153;SDS011;2595;53.584;10.084;2022-07-29T14:24:32;4.17;;;2.73;;
5153;SDS011;2595;53.584;10.084;2022-07-29T14:26:58;10.70;;;3.53;;
5153;SDS011;2595;53.584;10.084;2022-07-29T14:29:24;6.70;;;2.60;;
5153;SDS011;2595;53.584;10.084;2022-07-29T14:31:50;6.47;;;2.40;;
5153;SDS011;2595;53.584;10.084;2022-07-29T14:34:15;5.70;;;2.80;;
5153;SDS011;2595;53.584;10.084;2022-07-29T14:36:41;7.00;;;2.70;;
5153;SDS011;2595;53.584;10.084;2022-07-29T14:39:07;6.20;;;2.20;;
5153;SDS011;2595;53.584;10.084;2022-07-29T14:41:32;4.20;;;2.33;;
5153;SDS011;2595;53.584;10.084;2022-07-29T14:43:58;2.80;;;2.00;;
5153;SDS011;2595;53.584;10.084;2022-07-29T14:46:25;2.43;;;2.20;;
5153;SDS011;2595;53.584;10.084;2022-07-29T14:48:51;1.90;;;1.67;;
5153;SDS011;2595;53.584;10.084;2022-07-29T14:51:17;4.23;;;2.40;;
5153;SDS011;2595;53.584;10.084;2022-07-29T14:53:43;3.13;;;2.83;;
5153;SDS011;2595;53.584;10.084;2022-07-29T14:56:08;5.97;;;2.53;;
5153;SDS011;2595;53.584;10.084;2022-07-29T14:58:34;2.50;;;2.30;;
5153;SDS011;2595;53.584;10.084;2022-07-29T15:01:00;3.10;;;2.53;;
5153;SDS011;2595;53.584;10.084;2022-07-29T15:03:26;2.53;;;2.07;;
5153;SDS011;2595;53.584;10.084;2022-07-29T15:05:55;4.43;;;2.37;;
5153;SDS011;2595;53.584;10.084;2022-07-29T15:08:20;3.20;;;2.17;;
5153;SDS011;2595;53.584;10.084;2022-07-29T15:10:46;2.13;;;1.90;;
5153;SDS011;2595;53.584;10.084;2022-07-29T15:13:12;6.57;;;2.57;;
5153;SDS011;2595;53.584;10.084;2022-07-29T15:15:37;3.50;;;1.97;;
5153;SDS011;2595;53.584;10.084;2022-07-29T15:18:03;4.33;;;2.47;;
5153;SDS011;2595;53.584;10.084;2022-07-29T15:20:29;2.10;;;1.97;;
5153;SDS011;2595;53.584;10.084;2022-07-29T15:22:55;4.77;;;2.80;;
5153;SDS011;2595;53.584;10.084;2022-07-29T15:25:21;5.17;;;2.13;;
5153;SDS011;2595;53.584;10.084;2022-07-29T15:27:47;2.93;;;2.63;;
5153;SDS011;2595;53.584;10.084;2022-07-29T15:30:13;2.93;;;2.27;;
5153;SDS011;2595;53.584;10.084;2022-07-29T15:32:41;2.90;;;1.83;;
5153;SDS011;2595;53.584;10.084;2022-07-29T15:35:10;2.13;;;1.93;;
5153;SDS011;2595;53.584;10.084;2022-07-29T15:37:39;8.40;;;2.73;;
5153;SDS011;2595;53.584;10.084;2022-07-29T15:40:05;2.30;;;2.00;;
5153;SDS011;2595;53.584;10.084;2022-07-29T15:42:31;2.40;;;2.20;;
5153;SDS011;2595;53.584;10.084;2022-07-29T15:44:57;5.43;;;2.10;;
5153;SDS011;2595;53.584;10.084;2022-07-29T15:47:22;3.67;;;2.17;;
5153;SDS011;2595;53.584;10.084;2022-07-29T15:49:48;4.03;;;2.50;;
5153;SDS011;2595;53.584;10.084;2022-07-29T15:52:15;2.63;;;2.40;;
5153;SDS011;2595;53.584;10.084;2022-07-29T15:54:43;4.23;;;2.60;;
5153;SDS011;2595;53.584;10.084;2022-07-29T15:57:09;2.90;;;2.70;;
5153;SDS011;2595;53.584;10.084;2022-07-29T15:59:35;3.50;;;2.00;;
5153;SDS011;2595;53.584;10.084;2022-07-29T16:02:00;5.13;;;2.30;;
5153;SDS011;2595;53.584;10.084;2022-07-29T16:04:26;3.80;;;2.50;;
5153;SDS011;2595;53.584;10.084;2022-07-29T16:06:52;5.60;;;1.90;;
5153;SDS011;2595;53.584;10.084;2022-07-29T16:09:18;4.50;;;2.13;;